CFP6 weather

La Biche River Airport
La Biche River, Yukon Territory, Canada

Public forecast

Using degrees Celsius for public forecast. Weather courtesy of forecast.io.

Closest aviation weather report (METAR) to La Biche River Airport

Report is more than 6 hours old.

Closest report is Fort Liard Airport, 18.5 nm (34.2 km) ENE. Retrieved 2019/10/11 22:00 UTC (2 days ago):

CYJF 112200Z 21005KT 15SM FEW055 SCT075 BKN110 BKN240 OVC250 03/M00 A2968 RMK SC2AC2AS1CI2CS1 R00 AFT 12Z TR/LAST STFD OBS/NXT 151400Z PRESFR SLP064

Closest aviation forecast (TAF) to La Biche River Airport

Closest forecast is Fort Nelson Airport, 89.4 nm (165.5 km) SSE. Retrieved 2019-10-14 01:42 UTC (3 hours ago):

TAF CYYE 140039Z 1401/1413 35005KT P6SM SCT015 BKN040 TEMPO 1401/1413 BKN015 BKN050 RMK NXT FCST BY 140700Z